Time;durP1;ratioP1;P1;durP2;ratioP2;P2;SDS_P1;SDS_P2;PMS_P1;PMS_P2;Temp;Humidity;BMP_temperature;BMP_pressure;BME280_temperature;BME280_humidity;BME280_pressure;Samples;Min_cycle;Max_cycle;Signal;HPM_P1;HPM_P2
2021/05/18 00:00:27;;;;;;;1.40;1.30;;;;;;;9.74;100.00;99665.16;5074757;28;20232;-75
2021/05/18 00:02:53;;;;;;;1.70;1.60;;;;;;;9.73;100.00;99664.38;5072871;28;20178;-74
2021/05/18 00:05:20;;;;;;;1.33;1.23;;;;;;;9.77;100.00;99668.03;5071533;28;20809;-75
2021/05/18 00:07:57;;;;;;;1.77;1.67;;;;;;;9.78;100.00;99672.38;5071293;28;20213;-75
2021/05/18 00:13:08;;;;;;;2.20;2.10;;;;;;;9.80;100.00;99672.03;5071173;28;20687;-75
2021/05/18 00:15:34;;;;;;;1.47;1.40;;;;;;;9.81;100.00;99665.44;5071211;28;20174;-74
2021/05/18 00:18:00;;;;;;;2.77;2.60;;;;;;;9.83;100.00;99672.19;5071014;28;20181;-75
2021/05/18 00:20:26;;;;;;;1.40;1.30;;;;;;;9.85;100.00;99671.88;5071403;28;20174;-74
2021/05/18 00:22:51;;;;;;;3.27;2.27;;;;;;;9.85;100.00;99677.34;5071269;28;20179;-75
2021/05/18 00:25:17;;;;;;;2.70;2.17;;;;;;;9.86;100.00;99689.06;5070986;28;20198;-74
2021/05/18 00:27:42;;;;;;;2.33;2.13;;;;;;;9.87;100.00;99687.91;5070931;28;20805;-75
2021/05/18 00:30:10;;;;;;;1.67;1.57;;;;;;;9.85;100.00;99690.97;5071184;28;20248;-74
2021/05/18 00:32:36;;;;;;;3.07;2.83;;;;;;;9.84;100.00;99689.38;5070883;28;20201;-75
2021/05/18 00:35:03;;;;;;;2.10;1.90;;;;;;;9.81;100.00;99695.47;5071475;28;20257;-74
2021/05/18 00:37:29;;;;;;;3.40;1.97;;;;;;;9.80;100.00;99699.31;5070987;28;20179;-74
2021/05/18 00:39:54;;;;;;;2.73;1.97;;;;;;;9.75;100.00;99694.03;5071063;28;20175;-74
2021/05/18 00:42:22;;;;;;;1.60;1.50;;;;;;;9.73;100.00;99707.22;5070982;28;20638;-75
2021/05/18 00:44:50;;;;;;;7.00;2.37;;;;;;;9.72;100.00;99706.41;5070915;28;20693;-75
2021/05/18 00:47:16;;;;;;;3.57;3.27;;;;;;;9.73;100.00;99707.22;5070934;28;20227;-74
2021/05/18 00:49:42;;;;;;;5.03;1.80;;;;;;;9.72;100.00;99706.41;5070601;28;20171;-75
2021/05/18 00:52:07;;;;;;;3.40;3.20;;;;;;;9.71;100.00;99706.72;5070837;28;20175;-74
2021/05/18 00:54:41;;;;;;;3.23;2.93;;;;;;;9.69;99.73;99715.25;5070666;28;20233;-74
2021/05/18 00:59:51;;;;;;;2.77;2.37;;;;;;;9.69;98.20;99719.88;5071683;28;20543;-74
2021/05/18 01:02:16;;;;;;;3.13;2.87;;;;;;;9.67;97.58;99722.91;5074978;28;20183;-74
2021/05/18 01:04:43;;;;;;;2.77;2.57;;;;;;;9.64;96.58;99726.28;5074852;28;20513;-74
2021/05/18 01:07:10;;;;;;;3.30;2.80;;;;;;;9.61;95.76;99723.41;5074818;28;20174;-74
2021/05/18 01:09:35;;;;;;;3.87;3.50;;;;;;;9.60;96.09;99738.97;5074641;28;20540;-74
2021/05/18 01:12:01;;;;;;;3.63;3.10;;;;;;;9.61;96.14;99734.34;5074828;28;20177;-74
2021/05/18 01:14:26;;;;;;;3.70;3.47;;;;;;;9.61;96.86;99726.94;5074781;28;20378;-75
2021/05/18 01:16:52;;;;;;;5.00;4.57;;;;;;;9.62;97.79;99739.47;5074574;28;20178;-74
2021/05/18 01:19:21;;;;;;;5.57;3.33;;;;;;;9.63;97.66;99741.06;5074530;28;20578;-74
2021/05/18 01:21:47;;;;;;;3.63;3.33;;;;;;;9.60;98.20;99740.91;5074588;28;20175;-74
2021/05/18 01:24:16;;;;;;;2.90;2.70;;;;;;;9.60;97.90;99749.09;5074887;28;20749;-75
2021/05/18 01:26:41;;;;;;;4.17;2.80;;;;;;;9.57;97.67;99758.72;5074381;28;20200;-74
2021/05/18 01:29:08;;;;;;;7.00;3.77;;;;;;;9.60;97.48;99754.53;5074560;28;20765;-75
2021/05/18 01:31:34;;;;;;;3.13;2.93;;;;;;;9.58;97.98;99756.78;5074590;28;20178;-74
2021/05/18 01:34:03;;;;;;;3.10;2.63;;;;;;;9.57;97.89;99764.19;5074565;28;20198;-75
2021/05/18 01:36:31;;;;;;;5.30;1.90;;;;;;;9.57;97.50;99768.81;5074357;28;20231;-75
2021/05/18 01:39:02;;;;;;;3.67;2.20;;;;;;;9.53;97.00;99769.44;5074337;28;20171;-74
2021/05/18 01:44:13;;;;;;;2.80;2.57;;;;;;;9.42;95.13;99784.53;5074299;28;20169;-74
2021/05/18 01:46:39;;;;;;;4.20;2.90;;;;;;;9.39;94.65;99793.34;5074521;28;20177;-74
2021/05/18 01:49:09;;;;;;;8.57;2.97;;;;;;;9.38;95.05;99782.75;5078063;28;20174;-73
2021/05/18 01:51:38;;;;;;;2.77;2.57;;;;;;;9.31;94.83;99782.44;5089588;28;20175;-73
2021/05/18 01:54:23;;;;;;;4.97;2.70;;;;;;;9.33;95.39;99791.91;5075709;28;20575;-74
2021/05/18 01:56:53;;;;;;;2.60;2.40;;;;;;;9.27;95.47;99795.91;5074412;28;20166;-74
2021/05/18 01:59:22;;;;;;;2.93;2.63;;;;;;;9.28;96.23;99800.25;5074287;28;20653;-74
2021/05/18 02:01:53;;;;;;;2.47;2.27;;;;;;;9.28;96.33;99804.88;5073677;28;20170;-74
2021/05/18 02:04:24;;;;;;;3.87;2.67;;;;;;;9.21;96.04;99800.69;5073761;28;20205;-73
2021/05/18 02:06:51;;;;;;;4.33;3.07;;;;;;;9.20;95.75;99806.47;5073541;28;20175;-73
2021/05/18 02:09:17;;;;;;;4.27;3.57;;;;;;;9.19;95.81;99810.31;5073559;28;20171;-74
2021/05/18 02:11:42;;;;;;;3.50;3.20;;;;;;;9.20;95.89;99811.91;5073003;28;20185;-73
2021/05/18 02:14:09;;;;;;;4.23;2.97;;;;;;;9.21;96.07;99821.69;5073451;28;20203;-74
2021/05/18 02:16:38;;;;;;;4.90;2.73;;;;;;;9.18;95.83;99814.16;5073481;28;20171;-74
2021/05/18 02:19:36;;;;;;;3.17;2.63;;;;;;;9.17;96.43;99821.53;5073277;28;20186;-74
2021/05/18 02:27:02;;;;;;;3.37;3.07;;;;;;;9.02;96.65;99834.78;5073508;28;20535;-74
2021/05/18 02:29:27;;;;;;;3.23;2.93;;;;;;;9.00;96.79;99837.03;5073246;28;20171;-73
2021/05/18 02:31:55;;;;;;;2.83;2.23;;;;;;;8.94;95.76;99839.88;5073248;28;20685;-74
2021/05/18 02:34:21;;;;;;;3.57;3.37;;;;;;;8.92;94.92;99847.56;5072923;28;20198;-74
2021/05/18 02:36:46;;;;;;;5.63;2.73;;;;;;;8.91;93.87;99851.41;5072840;28;20257;-73
2021/05/18 02:39:12;;;;;;;2.93;2.50;;;;;;;8.90;93.51;99849.00;5072869;28;20610;-74
2021/05/18 02:41:37;;;;;;;2.50;1.87;;;;;;;8.91;93.05;99854.16;5072885;28;20477;-74
2021/05/18 02:44:08;;;;;;;2.83;2.60;;;;;;;8.91;92.54;99853.34;5072912;28;20853;-74
2021/05/18 02:49:17;;;;;;;3.83;2.57;;;;;;;8.95;93.20;99860.56;5072702;28;20232;-74
2021/05/18 02:51:47;;;;;;;2.73;2.50;;;;;;;8.97;93.23;99863.00;5072634;28;20183;-74
2021/05/18 02:54:14;;;;;;;5.50;3.60;;;;;;;8.95;93.36;99862.50;5072552;28;20233;-74
2021/05/18 02:56:50;;;;;;;3.73;3.27;;;;;;;8.98;93.50;99863.81;5072650;28;20207;-74
2021/05/18 02:59:19;;;;;;;2.73;2.53;;;;;;;9.01;94.09;99868.63;5072295;28;20568;-74
2021/05/18 03:01:52;;;;;;;3.43;3.13;;;;;;;9.01;93.71;99858.53;5072405;28;20542;-74
2021/05/18 03:04:18;;;;;;;3.00;2.30;;;;;;;9.03;93.91;99859.00;5072433;28;20206;-74
2021/05/18 03:06:47;;;;;;;4.07;3.73;;;;;;;9.04;94.29;99857.88;5072252;28;20194;-74
2021/05/18 03:09:13;;;;;;;3.27;2.67;;;;;;;9.06;93.80;99863.81;5072336;28;20236;-74
2021/05/18 03:11:41;;;;;;;2.40;2.20;;;;;;;9.02;94.22;99868.28;5072302;28;20166;-74
2021/05/18 03:14:08;;;;;;;2.90;2.63;;;;;;;9.00;94.11;99865.09;5070814;28;20210;-73
2021/05/18 03:16:37;;;;;;;3.57;3.27;;;;;;;9.03;94.49;99869.91;5072092;28;20175;-74
2021/05/18 03:19:04;;;;;;;4.17;3.77;;;;;;;9.04;94.26;99863.34;5070695;28;20181;-74
2021/05/18 03:21:29;;;;;;;4.23;3.87;;;;;;;9.02;93.85;99870.22;5072083;28;20196;-74
2021/05/18 03:23:55;;;;;;;7.63;2.97;;;;;;;9.04;94.62;99870.69;5071085;28;20773;-75
2021/05/18 03:26:21;;;;;;;4.07;3.73;;;;;;;9.04;94.43;99871.50;5071833;28;20175;-75
2021/05/18 03:28:53;;;;;;;3.40;3.10;;;;;;;9.07;94.33;99872.78;5071705;28;20645;-75
2021/05/18 03:36:46;;;;;;;6.13;3.00;;;;;;;9.06;94.46;99866.53;5072000;28;20174;-74
2021/05/18 03:39:11;;;;;;;4.43;2.97;;;;;;;9.06;95.13;99871.19;5071453;28;20170;-74
2021/05/18 03:52:33;;;;;;;2.43;2.17;;;;;;;9.00;96.15;99886.09;5071553;28;20206;-74
2021/05/18 03:58:32;;;;;;;3.17;2.77;;;;;;;8.97;96.40;99882.06;5071361;28;20174;-75
2021/05/18 04:03:27;;;;;;;3.30;3.10;;;;;;;9.00;96.59;99884.16;5071253;28;20261;-74
2021/05/18 04:19:18;;;;;;;2.77;2.47;;;;;;;9.06;96.82;99887.53;5070936;28;20177;-74
2021/05/18 04:21:54;;;;;;;2.83;2.60;;;;;;;9.06;97.21;99888.34;5070885;28;20174;-74
2021/05/18 04:24:46;;;;;;;6.90;3.37;;;;;;;9.07;96.86;99892.66;5071437;28;20174;-74
2021/05/18 04:51:20;;;;;;;5.87;3.50;;;;;;;9.00;97.79;99916.84;5059175;28;20195;-74
2021/05/18 04:54:08;;;;;;;3.33;3.00;;;;;;;9.06;98.26;99910.13;5070574;28;20252;-74
2021/05/18 04:59:22;;;;;;;6.13;3.60;;;;;;;9.16;97.80;99914.50;5070290;28;20276;-74
2021/05/18 05:07:13;;;;;;;6.07;3.97;;;;;;;9.31;96.44;99924.19;5050249;28;20223;-74
2021/05/18 05:09:45;;;;;;;3.83;3.27;;;;;;;9.36;96.32;99924.84;5070616;28;20634;-73
2021/05/18 05:12:50;;;;;;;2.67;2.47;;;;;;;9.39;96.08;99931.56;5070630;28;20468;-74
2021/05/18 05:14:59;;;;;;;7.33;3.30;;;;;;;9.40;96.03;99928.56;5070196;28;20278;-74
2021/05/18 05:17:24;;;;;;;4.30;3.50;;;;;;;9.40;95.30;99933.19;5070562;28;20249;-74
2021/05/18 05:19:50;;;;;;;2.23;2.07;;;;;;;9.38;95.02;99935.44;5070292;28;20211;-74
2021/05/18 05:22:15;;;;;;;3.20;2.90;;;;;;;9.35;95.13;99938.78;5070311;28;20175;-74
2021/05/18 05:24:42;;;;;;;2.97;2.17;;;;;;;9.32;95.31;99944.88;5070331;28;20240;-73
2021/05/18 05:27:07;;;;;;;2.50;2.30;;;;;;;9.31;94.90;99941.34;5070265;28;20610;-74
2021/05/18 05:29:32;;;;;;;3.47;2.97;;;;;;;9.40;95.27;99952.25;5070323;28;20253;-74
2021/05/18 05:31:58;;;;;;;2.60;2.27;;;;;;;9.50;95.23;99952.00;5070462;28;20178;-73
2021/05/18 05:34:23;;;;;;;2.53;2.33;;;;;;;9.66;95.41;99955.06;5068841;28;20202;-74
2021/05/18 05:36:48;;;;;;;3.47;3.20;;;;;;;9.74;94.70;99959.75;5070186;28;20182;-74
2021/05/18 05:39:23;;;;;;;2.47;2.27;;;;;;;9.81;93.79;99949.97;5068741;28;20189;-74
2021/05/18 05:41:54;;;;;;;3.40;3.10;;;;;;;9.90;93.50;99960.91;5070313;28;20194;-74
2021/05/18 05:44:20;;;;;;;5.50;1.93;;;;;;;9.90;93.15;99960.91;5070601;28;20628;-73
2021/05/18 05:46:46;;;;;;;2.60;2.40;;;;;;;9.88;92.69;99965.09;5072309;28;20261;-73
2021/05/18 05:49:11;;;;;;;2.97;2.77;;;;;;;9.89;91.91;99966.69;5072333;28;20360;-74
2021/05/18 05:51:37;;;;;;;2.93;2.73;;;;;;;9.92;92.33;99972.31;5071909;28;20179;-75
2021/05/18 05:54:03;;;;;;;1.83;1.63;;;;;;;9.95;91.71;99985.31;5072993;28;20209;-73
2021/05/18 05:56:29;;;;;;;2.20;2.00;;;;;;;9.95;91.85;99981.78;5072129;28;20216;-74
2021/05/18 05:58:55;;;;;;;2.50;2.07;;;;;;;9.99;90.93;99980.84;5057909;28;20546;-74
2021/05/18 06:01:21;;;;;;;5.17;2.77;;;;;;;10.06;91.42;99978.44;5053663;28;20209;-74
2021/05/18 06:03:46;;;;;;;3.50;3.20;;;;;;;10.11;90.82;99991.13;5053549;28;20558;-73
2021/05/18 06:06:12;;;;;;;6.53;4.43;;;;;;;10.09;89.56;99977.78;5053564;28;20213;-74
2021/05/18 06:08:41;;;;;;;3.33;2.57;;;;;;;10.17;90.26;99978.94;5053355;28;20180;-74
2021/05/18 06:11:38;;;;;;;4.73;2.30;;;;;;;10.22;89.13;99976.06;5068959;28;20519;-74
2021/05/18 06:16:55;;;;;;;4.00;3.03;;;;;;;10.23;87.83;99980.41;5073517;28;20174;-74
2021/05/18 06:48:14;;;;;;;2.47;2.27;;;;;;;10.83;81.18;99995.97;5072705;28;20258;-74
2021/05/18 06:50:40;;;;;;;1.70;1.60;;;;;;;10.84;79.41;100002.22;5073098;28;20533;-74
2021/05/18 06:53:05;;;;;;;1.23;1.20;;;;;;;10.84;79.76;100000.28;5072316;28;20676;-75
2021/05/18 06:55:33;;;;;;;3.37;2.63;;;;;;;10.90;80.21;100001.75;5072572;28;20182;-74
2021/05/18 06:58:10;;;;;;;1.80;1.67;;;;;;;11.03;80.49;100005.44;5068080;28;20183;-75
2021/05/18 07:00:37;;;;;;;2.20;1.00;;;;;;;10.97;78.75;100007.50;5072239;28;20222;-74
2021/05/18 07:03:06;;;;;;;1.10;1.10;;;;;;;10.97;78.02;100017.63;5070994;28;20653;-74
2021/05/18 07:10:38;;;;;;;6.73;3.50;;;;;;;11.10;77.92;100024.06;5072574;28;20171;-75
2021/05/18 07:13:03;;;;;;;0.93;0.80;;;;;;;11.10;77.77;100022.13;5072331;28;20618;-74
2021/05/18 07:15:29;;;;;;;2.00;1.33;;;;;;;11.10;79.22;100018.59;5071007;28;20202;-75
2021/05/18 07:17:55;;;;;;;1.23;1.13;;;;;;;11.04;77.31;100037.09;5070893;28;20257;-74
2021/05/18 07:20:21;;;;;;;1.40;1.30;;;;;;;11.05;77.85;100040.63;5072235;28;20700;-75
2021/05/18 07:22:49;;;;;;;1.20;0.87;;;;;;;10.96;78.55;100030.50;5072278;28;20183;-75
2021/05/18 07:25:14;;;;;;;2.70;1.57;;;;;;;10.95;79.43;100037.09;5072125;28;20186;-75
2021/05/18 07:27:39;;;;;;;1.10;1.00;;;;;;;10.90;78.47;100033.75;5072075;28;20174;-75
2021/05/18 07:30:07;;;;;;;3.63;1.40;;;;;;;10.90;78.33;100044.69;5072167;28;20184;-74
2021/05/18 07:32:32;;;;;;;1.53;1.43;;;;;;;10.92;78.79;100039.69;5072114;28;20190;-75
2021/05/18 07:34:57;;;;;;;2.23;1.83;;;;;;;10.93;79.83;100039.34;5071958;28;20178;-74
2021/05/18 07:37:23;;;;;;;4.23;0.97;;;;;;;10.91;78.41;100038.88;5071680;28;20191;-74
2021/05/18 07:39:48;;;;;;;1.17;0.87;;;;;;;10.90;77.39;100034.53;5071676;28;20182;-74
2021/05/18 07:42:14;;;;;;;1.40;1.30;;;;;;;10.96;77.31;100032.44;5071681;28;20184;-75
2021/05/18 07:44:40;;;;;;;1.90;1.57;;;;;;;11.06;77.80;100036.78;5071584;28;20194;-75
2021/05/18 07:47:05;;;;;;;1.53;1.43;;;;;;;11.18;77.46;100040.44;5071667;28;20213;-74
2021/05/18 07:49:34;;;;;;;1.93;1.53;;;;;;;11.23;77.10;100039.47;5070231;28;20210;-75
2021/05/18 08:05:31;;;;;;;1.83;1.73;;;;;;;11.44;76.58;100039.59;5071250;28;20221;-75
2021/05/18 08:07:56;;;;;;;1.63;1.53;;;;;;;11.40;77.12;100042.16;5069884;28;20183;-75
2021/05/18 08:12:47;;;;;;;1.20;1.00;;;;;;;11.35;77.05;100045.06;5070606;28;20198;-75
2021/05/18 10:14:36;;;;;;;0.70;0.70;;;;;;;13.09;65.49;100042.88;5053223;28;20230;-75
2021/05/18 10:36:13;;;;;;;1.27;1.10;;;;;;;13.66;61.80;100029.19;5052593;28;20178;-75
2021/05/18 10:38:46;;;;;;;1.30;1.20;;;;;;;13.70;61.23;100024.59;5052539;28;20178;-75
2021/05/18 10:41:13;;;;;;;1.20;1.00;;;;;;;13.59;60.89;100031.69;5051319;28;20207;-75
2021/05/18 10:43:40;;;;;;;1.33;1.00;;;;;;;13.78;61.57;100027.59;5052427;28;20172;-75
2021/05/18 10:46:29;;;;;;;1.20;1.07;;;;;;;13.97;61.63;100027.81;5051052;28;20262;-75
2021/05/18 10:49:08;;;;;;;1.23;1.13;;;;;;;14.13;61.89;100023.22;5052049;28;20555;-75
2021/05/18 10:51:50;;;;;;;1.50;1.40;;;;;;;14.24;62.44;100018.84;5052404;28;20653;-74
2021/05/18 10:54:24;;;;;;;1.03;1.03;;;;;;;13.88;60.65;100016.13;5052228;28;20206;-74
2021/05/18 10:56:56;;;;;;;3.17;2.20;;;;;;;14.41;62.36;100009.53;5052408;28;20206;-75
2021/05/18 10:59:34;;;;;;;0.77;0.77;;;;;;;14.85;60.59;100012.38;5051747;28;20226;-75
2021/05/18 11:02:10;;;;;;;0.87;0.80;;;;;;;15.00;57.71;100016.34;5052102;28;20671;-75
2021/05/18 11:04:38;;;;;;;2.07;1.53;;;;;;;15.23;60.51;100011.06;5052045;28;20265;-75
2021/05/18 11:07:05;;;;;;;1.10;1.10;;;;;;;15.44;58.57;100006.09;5051853;28;20677;-75
2021/05/18 11:09:32;;;;;;;1.50;1.10;;;;;;;15.60;56.02;100009.69;5051820;28;20171;-75
2021/05/18 11:12:10;;;;;;;0.97;0.97;;;;;;;15.56;56.27;100005.22;5051898;28;20182;-75
2021/05/18 11:14:37;;;;;;;1.60;1.00;;;;;;;15.31;57.79;99999.06;5051967;28;20202;-75
2021/05/18 11:17:31;;;;;;;1.13;0.90;;;;;;;15.22;56.40;99995.72;5051716;28;20619;-75
2021/05/18 11:20:09;;;;;;;0.83;0.83;;;;;;;14.84;55.12;100008.03;5051223;28;20194;-75
2021/05/18 11:25:32;;;;;;;0.80;0.70;;;;;;;14.91;58.91;100001.94;5051906;28;20631;-76
2021/05/18 11:28:19;;;;;;;1.10;1.00;;;;;;;15.41;55.85;100007.59;5051356;28;20175;-75
2021/05/18 11:30:52;;;;;;;0.90;0.90;;;;;;;15.67;56.41;100004.38;5051536;28;20214;-74
2021/05/18 11:33:20;;;;;;;1.33;1.20;;;;;;;15.48;52.31;100010.56;5051626;28;20199;-75
2021/05/18 11:36:09;;;;;;;0.90;0.90;;;;;;;15.23;55.99;100000.06;5051538;28;20167;-75
2021/05/18 11:38:38;;;;;;;2.07;1.60;;;;;;;15.29;57.92;100002.19;5066557;28;20182;-75
2021/05/18 11:41:03;;;;;;;1.40;1.30;;;;;;;15.14;56.64;100006.50;5066913;28;20186;-75
2021/05/18 11:43:37;;;;;;;1.37;1.07;;;;;;;15.00;57.91;100010.84;5050486;28;20175;-75
2021/05/18 11:46:13;;;;;;;1.50;1.40;;;;;;;15.08;57.29;100009.88;5051298;28;20626;-75
2021/05/18 11:48:52;;;;;;;1.57;1.40;;;;;;;14.71;58.11;100007.28;5050866;28;20171;-75
2021/05/18 11:51:17;;;;;;;1.40;1.30;;;;;;;14.28;59.78;100008.75;5051048;28;20174;-75
2021/05/18 11:53:49;;;;;;;2.47;1.40;;;;;;;13.92;59.54;100012.38;5050851;28;20207;-76
2021/05/18 11:56:16;;;;;;;1.50;1.40;;;;;;;14.27;60.40;100011.84;5050947;28;20650;-75
2021/05/18 11:58:42;;;;;;;1.53;1.43;;;;;;;14.35;59.29;100010.13;5050639;28;20182;-75
2021/05/18 12:01:08;;;;;;;2.13;1.90;;;;;;;14.56;59.49;100002.53;5050935;28;20179;-75
2021/05/18 12:03:35;;;;;;;2.13;1.97;;;;;;;14.46;56.42;100009.31;5050888;28;20448;-75
2021/05/18 12:06:01;;;;;;;2.07;1.77;;;;;;;14.14;57.08;99997.34;5050684;28;20728;-74
2021/05/18 12:08:35;;;;;;;1.93;1.20;;;;;;;14.36;55.27;99998.78;5050851;28;20229;-75
2021/05/18 12:11:11;;;;;;;1.27;1.17;;;;;;;15.06;56.37;99999.25;5050688;28;20175;-74
2021/05/18 12:13:37;;;;;;;1.53;1.30;;;;;;;14.95;55.97;99995.38;5051072;28;20203;-74
2021/05/18 12:16:04;;;;;;;1.10;1.00;;;;;;;15.48;57.61;99996.78;5050550;28;20182;-74
2021/05/18 12:18:35;;;;;;;1.30;1.20;;;;;;;15.45;56.16;100000.22;5050402;28;20186;-74
2021/05/18 12:21:05;;;;;;;2.07;1.50;;;;;;;15.40;57.10;100005.22;5050839;28;20627;-74
2021/05/18 12:23:31;;;;;;;1.27;1.17;;;;;;;15.17;58.21;99997.53;5049257;28;20183;-75
2021/05/18 12:26:18;;;;;;;1.60;1.50;;;;;;;14.85;58.12;100009.63;5049106;28;20248;-74
2021/05/18 12:28:54;;;;;;;3.07;1.40;;;;;;;14.63;58.15;100013.75;5059692;28;20190;-76
2021/05/18 12:31:36;;;;;;;0.97;0.97;;;;;;;14.49;60.17;100010.59;5065666;28;20174;-75
2021/05/18 12:34:04;;;;;;;1.37;1.27;;;;;;;14.45;60.82;100015.16;5064670;28;20195;-74
2021/05/18 12:36:31;;;;;;;1.67;1.57;;;;;;;14.37;61.25;100029.81;5070963;28;20654;-76
2021/05/18 12:39:11;;;;;;;1.80;1.23;;;;;;;14.16;61.71;100022.50;5070682;28;20645;-74
2021/05/18 12:42:13;;;;;;;1.30;1.20;;;;;;;14.05;62.14;100026.09;5069460;28;20205;-75
2021/05/18 12:44:56;;;;;;;1.17;1.03;;;;;;;13.92;61.96;100017.06;5048725;28;20186;-74
2021/05/18 12:47:41;;;;;;;1.50;1.40;;;;;;;13.86;64.81;100024.72;5070646;28;20166;-74
2021/05/18 12:50:12;;;;;;;2.27;1.80;;;;;;;13.89;63.91;100017.75;5070853;28;20640;-74
2021/05/18 12:52:39;;;;;;;1.30;1.20;;;;;;;13.92;63.18;100017.88;5070657;28;20177;-74
2021/05/18 12:55:22;;;;;;;1.90;1.00;;;;;;;14.00;63.04;100024.38;5072875;28;20514;-74
2021/05/18 12:57:50;;;;;;;1.90;1.73;;;;;;;14.01;62.50;100012.22;5076358;28;20171;-74
2021/05/18 13:00:20;;;;;;;2.63;1.90;;;;;;;14.15;62.70;100015.41;5075718;28;20251;-74
2021/05/18 13:02:47;;;;;;;1.53;1.43;;;;;;;14.21;62.26;100019.53;5073668;28;20673;-74
2021/05/18 13:05:18;;;;;;;2.23;2.03;;;;;;;14.22;62.21;100021.16;5072952;28;20186;-74
2021/05/18 13:08:02;;;;;;;0.90;0.90;;;;;;;14.23;61.93;100020.00;5062912;28;20175;-73
2021/05/18 13:10:37;;;;;;;1.30;1.17;;;;;;;14.18;61.54;100014.75;5057240;28;20557;-74
2021/05/18 13:13:03;;;;;;;1.50;1.40;;;;;;;14.15;60.94;100018.16;5057175;28;20267;-73
2021/05/18 13:15:29;;;;;;;1.97;1.20;;;;;;;14.25;61.90;100014.16;5057404;28;20176;-74
2021/05/18 13:17:56;;;;;;;1.57;1.47;;;;;;;14.38;61.72;100018.47;5057040;28;20708;-74
2021/05/18 13:20:23;;;;;;;0.83;0.83;;;;;;;14.46;60.94;100014.00;5074693;28;20610;-74
2021/05/18 13:22:57;;;;;;;1.20;1.10;;;;;;;14.51;61.46;100011.03;5076540;28;20278;-74
2021/05/18 13:28:07;;;;;;;1.10;1.07;;;;;;;14.69;60.20;100017.84;5076908;28;20525;-75
2021/05/18 13:30:35;;;;;;;1.53;1.10;;;;;;;14.83;61.35;100015.50;5075029;28;20261;-74
2021/05/18 13:33:01;;;;;;;0.33;0.33;;;;;;;14.77;58.76;100008.66;5074661;28;20592;-75
2021/05/18 13:35:29;;;;;;;3.27;1.70;;;;;;;14.91;61.66;100004.72;5073506;28;20174;-75
2021/05/18 13:37:55;;;;;;;1.03;1.03;;;;;;;14.71;60.00;100015.53;5075124;28;20179;-75
2021/05/18 13:40:21;;;;;;;2.20;1.53;;;;;;;14.59;60.13;100015.56;5075686;28;20167;-75
2021/05/18 13:42:51;;;;;;;2.63;1.30;;;;;;;14.45;61.14;100026.16;5075782;28;20474;-75
2021/05/18 13:45:18;;;;;;;1.67;1.17;;;;;;;14.35;61.08;100013.69;5076320;28;20174;-75
2021/05/18 13:47:44;;;;;;;1.30;0.70;;;;;;;14.12;61.63;100020.81;5076669;28;20622;-75
2021/05/18 13:50:09;;;;;;;8.10;1.37;;;;;;;13.76;66.58;100035.38;5076204;28;20250;-74
2021/05/18 13:52:35;;;;;;;1.80;0.93;;;;;;;13.27;70.24;100038.81;5076151;28;20175;-75
2021/05/18 13:55:00;;;;;;;0.97;0.97;;;;;;;12.91;75.31;100034.00;5076279;28;20167;-75
2021/05/18 13:57:26;;;;;;;1.30;1.20;;;;;;;12.46;79.04;100040.19;5074999;28;20181;-74
2021/05/18 13:59:51;;;;;;;2.20;1.80;;;;;;;12.07;83.38;100041.41;5076065;28;20224;-74
2021/05/18 14:02:17;;;;;;;1.93;1.80;;;;;;;11.67;82.98;100045.59;5076505;28;20579;-73
2021/05/18 14:04:43;;;;;;;1.47;1.37;;;;;;;11.51;84.44;100039.88;5076021;28;20174;-72
2021/05/18 14:07:40;;;;;;;1.83;1.20;;;;;;;11.32;85.35;100032.84;5073633;28;20182;-73
2021/05/18 14:10:06;;;;;;;3.23;1.63;;;;;;;11.33;88.23;100041.88;5073347;28;20630;-73
2021/05/18 14:12:32;;;;;;;1.93;1.83;;;;;;;11.52;88.41;100038.72;5073236;28;20170;-73
2021/05/18 14:14:57;;;;;;;2.83;1.73;;;;;;;11.67;87.79;100038.19;5073195;28;20579;-73
2021/05/18 14:17:22;;;;;;;1.37;1.27;;;;;;;11.72;83.47;100048.16;5073325;28;20178;-73
2021/05/18 14:19:47;;;;;;;0.83;0.83;;;;;;;11.56;87.68;100054.16;5073085;28;20672;-73
2021/05/18 14:22:13;;;;;;;1.63;1.53;;;;;;;11.35;88.71;100066.16;5072914;28;20224;-72
2021/05/18 14:24:45;;;;;;;1.03;0.93;;;;;;;11.13;88.11;100054.28;5072834;28;20261;-73
2021/05/18 14:27:18;;;;;;;0.63;0.63;;;;;;;11.08;87.77;100057.19;5072830;28;20637;-73
2021/05/18 14:29:43;;;;;;;0.73;0.73;;;;;;;11.13;88.30;100059.75;5072644;28;20645;-73
2021/05/18 14:32:08;;;;;;;1.20;1.10;;;;;;;11.20;87.64;100059.25;5072596;28;20178;-73
2021/05/18 14:34:34;;;;;;;1.10;1.00;;;;;;;11.24;86.76;100055.53;5072493;28;20214;-73
2021/05/18 14:36:59;;;;;;;0.90;0.90;;;;;;;11.24;85.24;100055.53;5072532;28;20646;-73
2021/05/18 14:39:35;;;;;;;5.37;1.03;;;;;;;11.31;83.43;100055.88;5072421;28;20174;-73
2021/05/18 14:44:45;;;;;;;0.50;0.50;;;;;;;11.46;84.71;100056.47;5072537;28;20174;-73
2021/05/18 14:47:18;;;;;;;0.80;0.80;;;;;;;11.53;84.01;100062.22;5072314;28;20170;-72
2021/05/18 14:55:17;;;;;;;0.40;0.40;;;;;;;11.38;83.53;100062.75;5068400;28;20189;-73
2021/05/18 14:57:42;;;;;;;0.80;0.80;;;;;;;11.38;88.38;100065.50;5072535;28;20598;-72
2021/05/18 15:00:08;;;;;;;0.90;0.90;;;;;;;11.29;90.23;100060.06;5071181;28;20225;-73
2021/05/18 15:02:34;;;;;;;0.73;0.63;;;;;;;11.34;91.57;100054.41;5072396;28;20204;-73
2021/05/18 15:04:59;;;;;;;0.67;0.67;;;;;;;11.29;92.67;100051.84;5072388;28;20265;-73
2021/05/18 15:07:25;;;;;;;1.50;1.03;;;;;;;11.09;93.58;100067.00;5072265;28;20175;-73
2021/05/18 15:09:50;;;;;;;1.70;1.60;;;;;;;11.01;93.14;100057.69;5072340;28;20170;-73
2021/05/18 15:12:15;;;;;;;1.03;0.97;;;;;;;11.02;92.76;100072.16;5072302;28;20695;-74
2021/05/18 15:14:41;;;;;;;1.17;1.00;;;;;;;11.02;93.01;100064.75;5072570;28;20594;-73
2021/05/18 15:17:06;;;;;;;1.20;1.13;;;;;;;11.02;93.12;100072.16;5072165;28;20712;-73
2021/05/18 15:19:31;;;;;;;0.73;0.73;;;;;;;11.03;92.49;100065.56;5070936;28;20167;-73
2021/05/18 15:22:00;;;;;;;4.33;1.40;;;;;;;11.12;92.40;100071.81;5072139;28;20174;-73
2021/05/18 15:24:27;;;;;;;0.80;0.80;;;;;;;11.23;92.71;100069.53;5072147;28;20172;-74
2021/05/18 15:26:52;;;;;;;0.90;0.90;;;;;;;11.40;92.45;100074.16;5072322;28;20170;-74
2021/05/18 15:29:17;;;;;;;0.90;0.90;;;;;;;11.64;92.01;100074.44;5071862;28;20171;-74
2021/05/18 15:31:43;;;;;;;0.40;0.40;;;;;;;12.03;91.29;100075.28;5071963;28;20251;-74
2021/05/18 15:34:08;;;;;;;3.47;0.90;;;;;;;12.07;86.41;100068.00;5071818;28;20205;-74
2021/05/18 15:36:34;;;;;;;1.07;1.00;;;;;;;12.05;83.99;100073.81;5070520;28;20227;-74
2021/05/18 15:39:00;;;;;;;0.73;0.63;;;;;;;12.01;82.40;100072.88;5071775;28;20193;-73
2021/05/18 15:41:25;;;;;;;1.67;0.93;;;;;;;12.03;82.07;100070.59;5071857;28;20177;-73
2021/05/18 15:43:50;;;;;;;1.27;1.17;;;;;;;12.14;84.54;100071.00;5072153;28;20208;-74
2021/05/18 15:46:16;;;;;;;0.77;0.77;;;;;;;12.23;84.80;100073.69;5071854;28;20208;-74
2021/05/18 15:48:42;;;;;;;1.43;1.30;;;;;;;12.27;83.69;100069.16;5070699;28;20186;-73
2021/05/18 15:51:07;;;;;;;1.97;1.50;;;;;;;12.15;83.21;100069.88;5071501;28;20194;-74
2021/05/18 15:53:33;;;;;;;1.43;1.33;;;;;;;12.12;82.08;100067.78;5071427;28;20198;-74
2021/05/18 15:55:58;;;;;;;1.53;1.43;;;;;;;12.17;83.46;100067.63;5071296;28;20656;-77
2021/05/18 15:58:25;;;;;;;1.30;1.20;;;;;;;12.02;81.92;100074.47;5070344;28;20201;-73
2021/05/18 16:00:52;;;;;;;1.30;1.20;;;;;;;12.03;83.37;100072.53;5071249;28;20324;-74
2021/05/18 16:03:18;;;;;;;1.53;1.10;;;;;;;12.03;83.47;100078.81;5071618;28;20174;-74
2021/05/18 16:05:44;;;;;;;1.00;1.00;;;;;;;11.99;82.22;100077.03;5071112;28;20180;-74
2021/05/18 16:11:05;;;;;;;1.20;1.20;;;;;;;11.92;83.28;100080.31;5071181;28;20292;-74
2021/05/18 16:13:32;;;;;;;2.00;1.90;;;;;;;11.79;84.76;100073.91;5071052;28;20359;-74
2021/05/18 16:16:03;;;;;;;2.43;2.23;;;;;;;11.67;84.86;100081.97;5070963;28;20545;-73
2021/05/18 16:18:28;;;;;;;1.43;1.33;;;;;;;11.66;86.68;100074.91;5070840;28;20162;-74
2021/05/18 16:20:53;;;;;;;1.60;1.50;;;;;;;11.74;87.93;100085.03;5071028;28;20186;-74
2021/05/18 16:23:19;;;;;;;1.80;1.70;;;;;;;11.77;86.48;100081.63;5071080;28;20170;-76
2021/05/18 16:25:44;;;;;;;2.33;2.13;;;;;;;11.85;87.09;100080.00;5070906;28;20254;-73
2021/05/18 16:28:09;;;;;;;1.67;1.53;;;;;;;11.88;86.97;100077.44;5070838;28;20198;-74
2021/05/18 16:30:35;;;;;;;1.57;1.47;;;;;;;11.90;86.97;100077.09;5069125;28;20206;-73